createdAt,value
2019-04-29T00:04:30.666Z,92.70
2019-04-29T00:09:36.891Z,92.80
2019-04-29T00:14:44.536Z,92.90
2019-04-29T00:20:27.728Z,93.00
2019-04-29T00:25:34.025Z,93.00
2019-04-29T00:30:40.179Z,93.10
2019-04-29T00:35:46.201Z,93.10
2019-04-29T00:41:11.104Z,93.30
2019-04-29T00:46:17.271Z,93.20
2019-04-29T00:51:23.373Z,93.40
2019-04-29T00:56:29.600Z,93.50
2019-04-29T01:01:35.583Z,93.40
2019-04-29T01:06:41.773Z,93.50
2019-04-29T01:11:47.843Z,93.70
2019-04-29T01:16:53.926Z,93.80
2019-04-29T01:22:00.013Z,93.70
2019-04-29T01:27:20.398Z,93.70
2019-04-29T01:32:26.677Z,93.90
2019-04-29T01:37:43.389Z,94.10
2019-04-29T01:42:49.478Z,94.00
2019-04-29T01:47:55.446Z,94.10
2019-04-29T01:53:01.456Z,94.30
2019-04-29T01:58:07.309Z,94.60
2019-04-29T02:03:13.361Z,94.60
2019-04-29T02:08:19.163Z,94.20
2019-04-29T02:13:24.872Z,94.00
2019-04-29T02:18:30.872Z,94.50
2019-04-29T02:23:41.771Z,94.30
2019-04-29T02:28:47.771Z,94.30
2019-04-29T02:33:53.722Z,94.70
2019-04-29T02:39:34.088Z,94.80
2019-04-29T02:44:40.062Z,94.90
2019-04-29T02:49:46.160Z,95.30
2019-04-29T02:54:54.250Z,95.80
2019-04-29T03:00:10.952Z,95.80
2019-04-29T03:05:20.074Z,95.10
2019-04-29T03:10:25.926Z,94.90
2019-04-29T03:15:34.856Z,94.70
2019-04-29T03:20:50.112Z,95.00
2019-04-29T03:25:55.804Z,94.80
2019-04-29T03:31:01.791Z,94.80
2019-04-29T03:36:07.749Z,94.70
2019-04-29T03:41:13.738Z,94.80
2019-04-29T03:46:19.617Z,94.80
2019-04-29T03:51:25.518Z,95.30
2019-04-29T03:56:31.562Z,95.30
2019-04-29T04:01:49.679Z,95.40
2019-04-29T04:07:15.118Z,95.50
2019-04-29T04:12:21.052Z,95.50
2019-04-29T04:17:35.862Z,95.60
2019-04-29T04:22:48.773Z,95.80
2019-04-29T04:27:54.823Z,95.80
2019-04-29T04:33:00.597Z,95.80
2019-04-29T04:38:06.574Z,95.90
2019-04-29T04:43:12.528Z,95.50
2019-04-29T04:48:44.841Z,95.70
2019-04-29T04:53:50.791Z,95.90
2019-04-29T04:58:56.873Z,96.00
2019-04-29T05:04:02.792Z,95.90
2019-04-29T05:09:09.066Z,96.20
2019-04-29T05:14:15.021Z,96.20
2019-04-29T05:19:20.910Z,97.40
2019-04-29T05:24:26.953Z,98.60
2019-04-29T05:29:32.952Z,97.90
2019-04-29T05:34:41.912Z,98.20
2019-04-29T05:39:48.257Z,98.10
2019-04-29T05:45:06.992Z,98.00
2019-04-29T05:50:30.436Z,98.00
2019-04-29T05:55:36.419Z,98.00
2019-04-29T06:00:46.199Z,98.00
2019-04-29T06:05:52.242Z,98.10
2019-04-29T06:10:58.114Z,98.10
2019-04-29T06:16:04.208Z,98.20
2019-04-29T06:21:10.156Z,98.00
2019-04-29T06:26:15.935Z,97.90
2019-04-29T06:31:21.810Z,98.60
2019-04-29T06:36:27.771Z,98.40
2019-04-29T06:41:33.849Z,98.50
2019-04-29T06:46:39.965Z,98.50
2019-04-29T06:51:45.917Z,98.40
2019-04-29T06:56:51.935Z,98.30
2019-04-29T07:01:58.181Z,98.30
2019-04-29T07:07:04.935Z,98.20
2019-04-29T07:12:12.550Z,98.40
2019-04-29T07:17:18.447Z,98.50
2019-04-29T07:22:25.856Z,98.50
2019-04-29T07:27:34.851Z,98.40
2019-04-29T07:32:42.274Z,98.50
2019-04-29T07:37:47.657Z,98.20
2019-04-29T07:42:53.717Z,98.30
2019-04-29T07:48:01.767Z,98.60
2019-04-29T07:53:07.748Z,98.70
2019-04-29T07:58:13.655Z,98.50
2019-04-29T08:03:19.798Z,98.30
2019-04-29T08:08:26.601Z,98.20
2019-04-29T08:13:33.128Z,98.00
2019-04-29T08:18:39.264Z,97.50
2019-04-29T08:23:45.292Z,96.70
2019-04-29T08:28:53.036Z,96.70
2019-04-29T08:33:58.873Z,96.90
2019-04-29T08:39:08.855Z,96.80
2019-04-29T08:44:22.965Z,96.70
2019-04-29T08:49:30.562Z,96.50
2019-04-29T08:54:37.543Z,96.80
2019-04-29T08:59:43.628Z,95.80
2019-04-29T09:04:53.834Z,95.80
2019-04-29T09:10:01.660Z,95.10
2019-04-29T09:15:05.218Z,94.30
2019-04-29T09:20:12.198Z,93.70
2019-04-29T09:26:01.995Z,93.30
2019-04-29T09:30:56.727Z,92.80
2019-04-29T09:36:03.140Z,92.00
2019-04-29T09:41:25.301Z,92.00
2019-04-29T09:46:34.595Z,92.40
2019-04-29T09:51:41.990Z,91.90
2019-04-29T09:56:47.943Z,91.70
2019-04-29T10:02:26.339Z,91.70
2019-04-29T10:07:32.847Z,91.60
2019-04-29T10:12:39.439Z,91.30
2019-04-29T10:17:56.020Z,91.10
2019-04-29T10:23:02.334Z,90.50
2019-04-29T10:28:08.444Z,90.30
2019-04-29T10:33:17.690Z,90.30
2019-04-29T10:38:22.723Z,90.40
2019-04-29T10:44:06.116Z,90.80
2019-04-29T10:49:21.738Z,91.00
2019-04-29T10:54:29.850Z,91.10
2019-04-29T10:59:40.702Z,91.30
2019-04-29T11:04:46.886Z,91.30
2019-04-29T11:09:57.691Z,91.40
2019-04-29T11:15:05.378Z,91.30
2019-04-29T11:20:16.054Z,91.00
2019-04-29T11:25:42.417Z,91.00
2019-04-29T11:30:49.720Z,91.00
2019-04-29T11:36:03.999Z,90.90
2019-04-29T11:41:12.279Z,90.70
2019-04-29T11:46:21.009Z,90.40
2019-04-29T11:51:49.355Z,90.20
2019-04-29T11:56:42.337Z,90.10
2019-04-29T12:02:12.071Z,90.00
2019-04-29T12:07:21.048Z,89.80
2019-04-29T12:12:26.033Z,89.30
2019-04-29T12:17:36.631Z,88.30
2019-04-29T12:22:48.577Z,88.90
2019-04-29T12:28:01.183Z,88.70
2019-04-29T12:33:05.301Z,88.10
2019-04-29T12:38:39.738Z,87.90
2019-04-29T12:43:59.869Z,86.70
2019-04-29T12:49:08.593Z,86.30
2019-04-29T12:54:13.842Z,84.40
2019-04-29T12:59:20.905Z,84.60
2019-04-29T13:04:54.521Z,83.70
2019-04-29T13:10:07.031Z,84.00
2019-04-29T13:15:33.360Z,82.90
2019-04-29T13:20:41.541Z,83.30
2019-04-29T13:25:51.081Z,83.00
2019-04-29T13:30:56.781Z,82.80
2019-04-29T13:36:02.554Z,82.70
2019-04-29T13:41:13.516Z,82.70
2019-04-29T13:46:51.086Z,82.10
2019-04-29T13:51:55.115Z,81.40
2019-04-29T13:57:07.737Z,82.00
2019-04-29T14:02:32.257Z,81.60
2019-04-29T14:07:35.529Z,81.40
2019-04-29T14:12:48.562Z,81.80
2019-04-29T14:17:49.210Z,81.70
2019-04-29T14:22:58.481Z,81.30
2019-04-29T14:28:04.888Z,80.80
2019-04-29T14:33:11.856Z,81.00
2019-04-29T14:38:17.921Z,80.10
2019-04-29T14:43:56.975Z,80.30
2019-04-29T14:49:09.400Z,79.60
2019-04-29T14:54:15.483Z,79.70
2019-04-29T14:59:21.778Z,79.60
2019-04-29T15:04:31.360Z,79.40
2019-04-29T15:09:46.883Z,78.50
2019-04-29T15:15:06.076Z,78.10
2019-04-29T15:20:37.332Z,78.10
2019-04-29T15:25:43.361Z,78.40
2019-04-29T15:30:49.409Z,77.80
2019-04-29T15:35:59.789Z,77.20
2019-04-29T15:41:05.449Z,77.00
2019-04-29T15:46:11.373Z,76.70
2019-04-29T15:51:18.338Z,75.90
2019-04-29T15:56:28.970Z,76.40
2019-04-29T16:01:32.305Z,77.00
2019-04-29T16:07:00.666Z,77.40
2019-04-29T16:17:22.316Z,78.20
2019-04-29T16:22:28.448Z,77.60
2019-04-29T16:27:34.509Z,77.60
2019-04-29T16:32:41.245Z,77.90
2019-04-29T16:37:47.418Z,77.60
2019-04-29T16:43:02.197Z,78.10
2019-04-29T16:48:08.393Z,78.50
2019-04-29T16:53:14.651Z,79.00
2019-04-29T16:58:20.909Z,79.40
2019-04-29T17:03:27.132Z,79.70
2019-04-29T17:09:03.060Z,80.30
2019-04-29T17:14:03.254Z,80.60
2019-04-29T17:19:09.593Z,80.50
2019-04-29T17:24:15.703Z,79.70
2019-04-29T17:29:55.378Z,79.10
2019-04-29T17:35:01.240Z,78.40
2019-04-29T17:35:17.817Z,77.80
2019-04-29T17:40:09.082Z,77.90
2019-04-29T17:45:26.971Z,78.10
2019-04-29T17:50:33.238Z,77.80
2019-04-29T17:55:45.317Z,77.70
2019-04-29T18:01:10.514Z,78.30
2019-04-29T18:06:59.012Z,78.60
2019-04-29T18:12:11.178Z,78.90
2019-04-29T18:17:27.104Z,79.20
2019-04-29T18:22:44.674Z,80.00
2019-04-29T18:27:53.524Z,80.90
2019-04-29T18:32:58.415Z,81.60
2019-04-29T18:38:07.441Z,82.30
2019-04-29T18:43:12.302Z,83.00
2019-04-29T18:48:21.473Z,83.10
2019-04-29T18:53:26.397Z,83.30
2019-04-29T18:58:32.619Z,84.00
2019-04-29T19:03:55.732Z,84.30
2019-04-29T19:09:02.786Z,84.40
2019-04-29T19:14:09.949Z,84.70
2019-04-29T19:19:18.739Z,85.10
2019-04-29T19:24:23.806Z,85.50
2019-04-29T19:29:30.173Z,85.40
2019-04-29T19:34:42.895Z,85.60
2019-04-29T19:39:44.963Z,85.40
2019-04-29T19:44:51.311Z,85.50
2019-04-29T19:49:57.440Z,83.90
2019-04-29T19:55:03.666Z,84.40
2019-04-29T20:00:10.569Z,84.60
2019-04-29T20:05:23.815Z,84.80
2019-04-29T20:10:31.038Z,85.20
2019-04-29T20:15:45.933Z,85.80
2019-04-29T20:21:08.941Z,86.50
2019-04-29T20:26:16.929Z,87.20
2019-04-29T20:31:22.402Z,87.50
2019-04-29T20:36:38.542Z,87.80
2019-04-29T20:41:40.700Z,88.60
2019-04-29T20:47:06.785Z,89.30
2019-04-29T20:51:55.811Z,90.50
2019-04-29T20:57:05.482Z,90.40
2019-04-29T21:02:12.703Z,91.00
2019-04-29T21:07:23.852Z,91.00
2019-04-29T21:12:50.006Z,91.30
2019-04-29T21:17:58.625Z,91.50
2019-04-29T21:23:04.187Z,91.60
2019-04-29T21:28:10.242Z,91.70
2019-04-29T21:33:20.998Z,93.00
2019-04-29T21:38:35.718Z,94.00
2019-04-29T21:43:42.427Z,93.70
2019-04-29T21:48:48.599Z,93.50
2019-04-29T21:53:56.003Z,93.40
2019-04-29T21:59:02.587Z,93.40
2019-04-29T22:04:09.806Z,93.40
2019-04-29T22:09:16.484Z,93.60
2019-04-29T22:14:22.842Z,93.60
2019-04-29T22:19:29.174Z,93.80
2019-04-29T22:24:35.692Z,93.90
2019-04-29T22:29:42.861Z,94.00
2019-04-29T22:34:49.617Z,94.10
2019-04-29T22:39:58.638Z,94.20
2019-04-29T22:45:05.671Z,94.10
2019-04-29T22:50:12.144Z,94.00
2019-04-29T22:55:18.155Z,93.90
2019-04-29T23:00:32.760Z,94.20
2019-04-29T23:05:35.674Z,94.30
2019-04-29T23:10:41.774Z,94.60
2019-04-29T23:15:47.670Z,94.60
2019-04-29T23:21:11.147Z,95.10
2019-04-29T23:26:17.201Z,94.90
2019-04-29T23:31:27.205Z,94.90
2019-04-29T23:36:31.208Z,94.90
2019-04-29T23:41:37.183Z,94.90
2019-04-29T23:46:43.035Z,95.00
2019-04-29T23:51:48.961Z,95.00
2019-04-29T23:57:29.006Z,95.20
